Time;durP1;ratioP1;P1;durP2;ratioP2;P2;SDS_P1;SDS_P2;PMS_P1;PMS_P2;Temp;Humidity;BMP_temperature;BMP_pressure;BME280_temperature;BME280_humidity;BME280_pressure;Samples;Min_cycle;Max_cycle;Signal;HPM_P1;HPM_P2
2022/01/13 00:02:17;;;;;;;;;;;;;;;2.29;100.00;102860.63;4972946;28;1091;-75
2022/01/13 00:04:46;;;;;;;;;;;;;;;2.30;100.00;102851.69;4973158;28;913;-76
2022/01/13 00:07:13;;;;;;;;;;;;;;;2.28;100.00;102850.81;4971475;28;1329;-76
2022/01/13 00:09:39;;;;;;;;;;;;;;;2.31;100.00;102848.97;4972782;28;900;-76
2022/01/13 00:12:08;;;;;;;;;;;;;;;2.33;100.00;102846.28;4972789;28;1915;-76
2022/01/13 00:14:54;;;;;;;;;;;;;;;2.33;100.00;102844.47;4972843;28;1039;-76
2022/01/13 00:17:31;;;;;;;;;;;;;;;2.34;100.00;102848.06;4971196;28;1402;-76
2022/01/13 00:20:19;;;;;;;;;;;;;;;2.38;100.00;102848.88;4972698;28;828;-76
2022/01/13 00:23:37;;;;;;;;;;;;;;;2.39;100.00;102846.19;4972624;28;1000;-75
2022/01/13 00:25:35;;;;;;;;;;;;;;;2.39;100.00;102843.50;4972292;28;1271;-74
2022/01/13 00:28:06;;;;;;;;;;;;;;;2.40;100.00;102829.19;4971096;28;965;-77
2022/01/13 00:30:32;;;;;;;;;;;;;;;2.44;100.00;102827.38;4971450;28;1050;-76
2022/01/13 00:33:01;;;;;;;;;;;;;;;2.44;100.00;102822.88;4972622;28;1981;-76
2022/01/13 00:35:29;;;;;;;;;;;;;;;2.44;100.00;102817.53;4971229;28;1424;-76
2022/01/13 00:37:55;;;;;;;;;;;;;;;2.47;100.00;102813.91;4970844;28;1032;-76
2022/01/13 00:40:21;;;;;;;;;;;;;;;2.45;100.00;102796.97;4971019;28;1070;-76
2022/01/13 00:42:47;;;;;;;;;;;;;;;2.44;100.00;102796.06;4972521;28;850;-75
2022/01/13 00:45:15;;;;;;;;;;;;;;;2.45;100.00;102808.56;4972022;28;1331;-75
2022/01/13 00:47:41;;;;;;;;;;;;;;;2.44;100.00;102816.66;4970595;28;1030;-75
2022/01/13 00:50:08;;;;;;;;;;;;;;;2.47;100.00;102817.50;4972111;28;1039;-76
2022/01/13 00:52:35;;;;;;;;;;;;;;;2.49;100.00;102820.16;4970254;28;1967;-76
2022/01/13 00:55:06;;;;;;;;;;;;;;;2.47;100.00;102817.50;4972125;28;996;-74
2022/01/13 00:57:33;;;;;;;;;;;;;;;2.49;100.00;102817.47;4970558;28;1435;-76
2022/01/13 00:59:59;;;;;;;;;;;;;;;2.48;100.00;102824.59;4972105;28;999;-77
2022/01/13 01:02:26;;;;;;;;;;;;;;;2.50;100.00;102833.53;4970978;28;995;-76
2022/01/13 01:04:52;;;;;;;;;;;;;;;2.50;100.00;102822.81;4971798;28;660;-75
2022/01/13 01:07:18;;;;;;;;;;;;;;;2.51;100.00;102818.31;4971565;28;1383;-76
2022/01/13 01:09:49;;;;;;;;;;;;;;;2.51;100.00;102829.03;4972089;28;992;-76
2022/01/13 01:12:17;;;;;;;;;;;;;;;2.51;100.00;102824.59;4971875;28;1922;-75
2022/01/13 01:14:48;;;;;;;;;;;;;;;2.51;100.00;102826.38;4971935;28;980;-75
2022/01/13 01:17:16;;;;;;;;;;;;;;;2.51;100.00;102819.22;4971507;28;1326;-76
2022/01/13 01:19:44;;;;;;;;;;;;;;;2.48;100.00;102810.34;4971883;28;963;-74
2022/01/13 01:25:04;;;;;;;;;;;;;;;2.49;100.00;102812.13;4970689;28;825;-76
2022/01/13 01:27:34;;;;;;;;;;;;;;;2.51;100.00;102815.63;4971666;28;1344;-76
2022/01/13 01:30:07;;;;;;;;;;;;;;;2.53;100.00;102819.19;4970848;28;964;-76
2022/01/13 01:32:35;;;;;;;;;;;;;;;2.54;100.00;102814.72;4971900;28;1927;-75
2022/01/13 01:35:03;;;;;;;;;;;;;;;2.52;100.00;102814.75;4971642;28;943;-76
2022/01/13 01:37:30;;;;;;;;;;;;;;;2.52;100.00;102820.09;4970169;28;1411;-76
2022/01/13 01:39:59;;;;;;;;;;;;;;;2.54;100.00;102818.31;4982484;28;1552;-75
2022/01/13 01:42:25;;;;;;;;;;;;;;;2.54;100.00;102818.31;4991385;28;710;-76
2022/01/13 01:44:54;;;;;;;;;;;;;;;2.53;100.00;102819.19;4973677;28;994;-76
2022/01/13 01:47:22;;;;;;;;;;;;;;;2.57;100.00;102820.06;4973270;28;1288;-75
2022/01/13 01:49:52;;;;;;;;;;;;;;;2.54;100.00;102810.25;4991010;28;901;-77
2022/01/13 01:52:19;;;;;;;;;;;;;;;2.56;100.00;102815.59;4973397;28;865;-77
2022/01/13 01:54:46;;;;;;;;;;;;;;;2.58;100.00;102820.03;4990870;28;1910;-76
2022/01/13 01:57:14;;;;;;;;;;;;;;;2.56;100.00;102816.47;4988931;28;1309;-75
2022/01/13 01:59:42;;;;;;;;;;;;;;;2.58;100.00;102814.66;4991215;28;836;-76
2022/01/13 02:02:10;;;;;;;;;;;;;;;2.57;100.00;102786.06;4973586;28;1518;-75
2022/01/13 02:04:36;;;;;;;;;;;;;;;2.58;100.00;102800.34;4991903;28;809;-75
2022/01/13 02:07:05;;;;;;;;;;;;;;;2.59;100.00;102803.03;4994128;28;1302;-75
2022/01/13 02:09:34;;;;;;;;;;;;;;;2.60;100.00;102799.41;4994499;28;1101;-76
2022/01/13 02:12:05;;;;;;;;;;;;;;;2.59;100.00;102794.09;4994538;28;944;-75
2022/01/13 02:14:35;;;;;;;;;;;;;;;2.62;100.00;102800.31;4994202;28;1985;-76
2022/01/13 02:17:05;;;;;;;;;;;;;;;2.62;100.00;102794.94;4994021;28;1341;-75
2022/01/13 02:19:32;;;;;;;;;;;;;;;2.63;100.00;102791.34;4994332;28;837;-75
2022/01/13 02:22:00;;;;;;;;;;;;;;;2.66;100.00;102782.38;4994257;28;972;-76
2022/01/13 02:24:27;;;;;;;;;;;;;;;2.65;100.00;102775.22;4976869;28;810;-75
2022/01/13 02:26:53;;;;;;;;;;;;;;;2.65;100.00;102772.56;4993992;28;1319;-75
2022/01/13 02:29:19;;;;;;;;;;;;;;;2.63;100.00;102777.03;4976659;28;951;-74
2022/01/13 02:31:46;;;;;;;;;;;;;;;2.65;100.00;102770.75;4994162;28;1062;-75
2022/01/13 02:34:12;;;;;;;;;;;;;;;2.66;100.00;102777.88;4993677;28;1972;-75
2022/01/13 02:36:38;;;;;;;;;;;;;;;2.67;100.00;102768.94;4993748;28;1409;-75
2022/01/13 02:39:06;;;;;;;;;;;;;;;2.65;100.00;102765.38;4994063;28;809;-74
2022/01/13 02:41:33;;;;;;;;;;;;;;;2.63;100.00;102748.44;4994206;28;920;-73
2022/01/13 02:44:00;;;;;;;;;;;;;;;2.64;100.00;102749.31;4993977;28;897;-74
2022/01/13 02:46:32;;;;;;;;;;;;;;;2.64;100.00;102752.00;4993649;28;1314;-75
2022/01/13 02:48:59;;;;;;;;;;;;;;;2.61;100.00;102744.00;4993922;28;924;-75
2022/01/13 02:51:25;;;;;;;;;;;;;;;2.61;100.00;102747.56;4993735;28;793;-75
2022/01/13 02:53:51;;;;;;;;;;;;;;;2.64;100.00;102744.81;4975803;28;1977;-76
2022/01/13 02:56:19;;;;;;;;;;;;;;;2.64;100.00;102741.28;4993426;28;1306;-75
2022/01/13 02:58:46;;;;;;;;;;;;;;;2.62;100.00;102730.56;4993666;28;1007;-75
2022/01/13 03:01:12;;;;;;;;;;;;;;;2.60;100.00;102720.78;4993444;28;951;-73
2022/01/13 03:03:40;;;;;;;;;;;;;;;2.59;100.00;102729.72;4993883;28;983;-75
2022/01/13 03:08:43;;;;;;;;;;;;;;;2.60;100.00;102718.97;5031381;28;1348;-70
2022/01/13 03:11:09;;;;;;;;;;;;;;;2.61;100.00;102711.84;5033085;28;727;-72
2022/01/13 03:13:37;;;;;;;;;;;;;;;2.61;100.00;102719.88;5016531;28;1914;-72
2022/01/13 03:16:07;;;;;;;;;;;;;;;2.62;100.00;102716.25;5034396;28;1057;-73
2022/01/13 03:18:33;;;;;;;;;;;;;;;2.61;100.00;102718.06;5013650;28;896;-72
2022/01/13 03:20:59;;;;;;;;;;;;;;;2.60;100.00;102710.06;5013082;28;1080;-73
2022/01/13 03:23:25;;;;;;;;;;;;;;;2.61;100.00;102707.34;5012809;28;1077;-74
2022/01/13 03:25:53;;;;;;;;;;;;;;;2.60;100.00;102715.41;5012687;28;986;-73
2022/01/13 03:28:29;;;;;;;;;;;;;;;2.61;100.00;102719.88;5012946;28;1289;-71
2022/01/13 03:30:59;;;;;;;;;;;;;;;2.58;100.00;102723.50;5012378;28;1441;-72
2022/01/13 03:33:26;;;;;;;;;;;;;;;2.59;100.00;102724.38;5012660;28;1930;-72
2022/01/13 03:35:53;;;;;;;;;;;;;;;2.60;100.00;102712.75;5012481;28;1046;-75
2022/01/13 03:38:19;;;;;;;;;;;;;;;2.59;100.00;102716.31;5012836;28;1388;-72
2022/01/13 03:40:45;;;;;;;;;;;;;;;2.63;100.00;102720.72;4995196;28;911;-71
2022/01/13 03:43:13;;;;;;;;;;;;;;;2.61;100.00;102715.38;5012874;28;995;-73
2022/01/13 03:45:40;;;;;;;;;;;;;;;2.61;100.00;102717.19;5012716;28;861;-73
2022/01/13 03:48:09;;;;;;;;;;;;;;;2.62;100.00;102713.59;5012316;28;1294;-73
2022/01/13 03:50:35;;;;;;;;;;;;;;;2.62;100.00;102714.50;5012367;28;1003;-73
2022/01/13 03:53:25;;;;;;;;;;;;;;;2.63;100.00;102710.91;4994873;28;900;-74
2022/01/13 03:56:10;;;;;;;;;;;;;;;2.64;100.00;102714.47;5012145;28;975;-71
2022/01/13 03:58:59;;;;;;;;;;;;;;;2.64;100.00;102711.78;5012256;28;757;-72
2022/01/13 04:01:47;;;;;;;;;;;;;;;2.63;100.00;102710.00;5012351;28;994;-72
2022/01/13 04:04:14;;;;;;;;;;;;;;;2.66;100.00;102702.78;5012726;28;766;-71
2022/01/13 04:06:42;;;;;;;;;;;;;;;2.65;100.00;102695.66;5011694;28;1297;-69
2022/01/13 04:09:10;;;;;;;;;;;;;;;2.65;100.00;102692.97;5012215;28;983;-70
2022/01/13 04:11:36;;;;;;;;;;;;;;;2.66;100.00;102685.84;4994570;28;802;-70
2022/01/13 04:14:05;;;;;;;;;;;;;;;2.66;100.00;102684.03;5012007;28;1911;-70
2022/01/13 04:16:33;;;;;;;;;;;;;;;2.66;100.00;102684.03;5011562;28;1268;-69
2022/01/13 04:19:04;;;;;;;;;;;;;;;2.64;100.00;102674.22;4994433;28;881;-69
2022/01/13 04:21:32;;;;;;;;;;;;;;;2.63;100.00;102672.44;5011861;28;967;-73
2022/01/13 04:23:59;;;;;;;;;;;;;;;2.62;100.00;102673.34;5011881;28;777;-71
2022/01/13 04:26:28;;;;;;;;;;;;;;;2.62;100.00;102674.25;5011083;28;1346;-71
2022/01/13 04:29:03;;;;;;;;;;;;;;;2.61;100.00;102680.53;5011583;28;908;-71
2022/01/13 04:31:29;;;;;;;;;;;;;;;2.60;100.00;102672.50;5011781;28;939;-70
2022/01/13 04:33:56;;;;;;;;;;;;;;;2.65;100.00;102678.69;5011614;28;1974;-69
2022/01/13 04:36:22;;;;;;;;;;;;;;;2.62;100.00;102670.66;5011182;28;1273;-71
2022/01/13 04:38:49;;;;;;;;;;;;;;;2.60;100.00;102681.44;5011682;28;890;-71
2022/01/13 04:41:27;;;;;;;;;;;;;;;2.60;100.00;102684.13;5011485;28;742;-72
2022/01/13 04:43:53;;;;;;;;;;;;;;;2.58;100.00;102679.69;5011287;28;963;-71
2022/01/13 04:46:20;;;;;;;;;;;;;;;2.62;100.00;102692.13;4993720;28;1381;-72
2022/01/13 04:48:46;;;;;;;;;;;;;;;2.60;100.00;102683.25;4993788;28;1494;-71
2022/01/13 04:51:12;;;;;;;;;;;;;;;2.58;100.00;102683.28;5010645;28;1583;-73
2022/01/13 04:53:39;;;;;;;;;;;;;;;2.54;100.00;102681.56;4995672;28;1919;-72
2022/01/13 04:56:11;;;;;;;;;;;;;;;2.58;100.00;102679.69;5008571;28;1524;-69
2022/01/13 04:58:37;;;;;;;;;;;;;;;2.56;100.00;102671.66;5011299;28;1054;-71
2022/01/13 05:01:04;;;;;;;;;;;;;;;2.57;100.00;102673.44;5011459;28;1475;-71
2022/01/13 05:03:30;;;;;;;;;;;;;;;2.55;100.00;102658.28;5011576;28;1007;-70
2022/01/13 05:05:56;;;;;;;;;;;;;;;2.57;100.00;102675.25;5010866;28;1531;-70
2022/01/13 05:08:23;;;;;;;;;;;;;;;2.58;100.00;102669.88;5010342;28;1661;-70
2022/01/13 05:10:49;;;;;;;;;;;;;;;2.58;100.00;102663.59;5010956;28;1570;-71
2022/01/13 05:13:16;;;;;;;;;;;;;;;2.59;100.00;102662.69;5011037;28;987;-69
2022/01/13 05:15:44;;;;;;;;;;;;;;;2.57;100.00;102670.75;5005249;28;2385;-71
2022/01/13 05:18:17;;;;;;;;;;;;;;;2.57;100.00;102673.44;5006941;28;1363;-72
2022/01/13 05:20:49;;;;;;;;;;;;;;;2.59;100.00;102677.00;5011496;28;1518;-69
2022/01/13 05:23:15;;;;;;;;;;;;;;;2.59;100.00;102674.31;5010174;28;1464;-72
2022/01/13 05:25:42;;;;;;;;;;;;;;;2.56;100.00;102674.34;5010608;28;1586;-69
2022/01/13 05:28:08;;;;;;;;;;;;;;;2.58;100.00;102668.97;5007213;28;1586;-70
2022/01/13 05:30:36;;;;;;;;;;;;;;;2.57;100.00;102667.22;4993366;28;1610;-70
2022/01/13 05:33:03;;;;;;;;;;;;;;;2.58;100.00;102674.31;4993418;28;1486;-70
2022/01/13 05:35:29;;;;;;;;;;;;;;;2.60;100.00;102670.72;5010924;28;1914;-71
2022/01/13 05:37:56;;;;;;;;;;;;;;;2.62;100.00;102676.03;5011155;28;1270;-70
2022/01/13 05:40:22;;;;;;;;;;;;;;;2.60;100.00;102659.97;5013587;28;984;-71
2022/01/13 05:42:49;;;;;;;;;;;;;;;2.61;100.00;102667.13;4997775;28;975;-71
2022/01/13 05:45:16;;;;;;;;;;;;;;;2.62;100.00;102665.31;5021516;28;1260;-72
2022/01/13 05:47:45;;;;;;;;;;;;;;;2.62;100.00;102662.63;5001621;28;1452;-72
2022/01/13 05:50:12;;;;;;;;;;;;;;;2.61;100.00;102663.56;5034465;28;1292;-72
2022/01/13 05:52:38;;;;;;;;;;;;;;;2.64;100.00;102667.06;5034780;28;987;-69
2022/01/13 05:55:05;;;;;;;;;;;;;;;2.61;100.00;102666.25;5035422;28;1914;-73
2022/01/13 05:57:32;;;;;;;;;;;;;;;2.62;100.00;102660.84;5035280;28;1283;-73
2022/01/13 05:59:58;;;;;;;;;;;;;;;2.60;100.00;102661.78;5032299;28;1579;-73
2022/01/13 06:02:24;;;;;;;;;;;;;;;2.64;100.00;102663.50;5015232;28;990;-72
2022/01/13 06:04:52;;;;;;;;;;;;;;;2.61;100.00;102669.81;5013960;28;1157;-71
2022/01/13 06:07:18;;;;;;;;;;;;;;;2.65;100.00;102676.00;5014884;28;1415;-70
2022/01/13 06:09:45;;;;;;;;;;;;;;;2.67;100.00;102675.06;5021935;28;1331;-70
2022/01/13 06:12:11;;;;;;;;;;;;;;;2.65;100.00;102676.88;5023128;28;1247;-71
2022/01/13 06:14:37;;;;;;;;;;;;;;;2.67;100.00;102684.91;5015032;28;1977;-72
2022/01/13 06:17:04;;;;;;;;;;;;;;;2.66;100.00;102688.50;5015157;28;1405;-71
2022/01/13 06:19:30;;;;;;;;;;;;;;;2.71;100.00;102697.34;5014972;28;995;-72
2022/01/13 06:21:58;;;;;;;;;;;;;;;2.71;100.00;102696.47;5014700;28;965;-70
2022/01/13 06:24:24;;;;;;;;;;;;;;;2.70;100.00;102698.28;5014915;28;999;-71
2022/01/13 06:26:50;;;;;;;;;;;;;;;2.68;100.00;102689.34;5014737;28;1301;-71
2022/01/13 06:29:16;;;;;;;;;;;;;;;2.68;100.00;102684.00;5015002;28;1030;-70
2022/01/13 06:31:43;;;;;;;;;;;;;;;2.71;100.00;102681.25;5014727;28;777;-70
2022/01/13 06:34:09;;;;;;;;;;;;;;;2.70;100.00;102684.88;5014412;28;1982;-71
2022/01/13 06:36:35;;;;;;;;;;;;;;;2.71;100.00;102696.47;5014055;28;1310;-71
2022/01/13 06:39:03;;;;;;;;;;;;;;;2.69;100.00;102707.22;5014290;28;1023;-70
2022/01/13 06:41:29;;;;;;;;;;;;;;;2.68;100.00;102678.63;5013950;28;936;-68
2022/01/13 06:43:56;;;;;;;;;;;;;;;2.68;100.00;102687.53;5013888;28;975;-69
2022/01/13 06:46:22;;;;;;;;;;;;;;;2.68;100.00;102700.09;5016225;28;1499;-68
2022/01/13 06:48:49;;;;;;;;;;;;;;;2.72;100.00;102698.25;5014012;28;992;-72
2022/01/13 06:51:15;;;;;;;;;;;;;;;2.69;100.00;102696.50;5014023;28;948;-71
2022/01/13 06:53:41;;;;;;;;;;;;;;;2.72;100.00;102685.72;5014208;28;942;-71
2022/01/13 06:56:10;;;;;;;;;;;;;;;2.69;100.00;102685.78;5013169;28;1985;-71
2022/01/13 06:58:37;;;;;;;;;;;;;;;2.70;100.00;102690.22;5013941;28;1037;-71
2022/01/13 07:01:03;;;;;;;;;;;;;;;2.72;100.00;102693.75;5013801;28;1141;-69
2022/01/13 07:03:29;;;;;;;;;;;;;;;2.70;100.00;102692.91;5013034;28;812;-71
2022/01/13 07:05:55;;;;;;;;;;;;;;;2.70;100.00;102706.31;5012338;28;1183;-70
2022/01/13 07:08:22;;;;;;;;;;;;;;;2.68;100.00;102710.81;5013478;28;1294;-71
2022/01/13 07:10:48;;;;;;;;;;;;;;;2.68;100.00;102705.44;5013760;28;1002;-71
2022/01/13 07:13:16;;;;;;;;;;;;;;;2.68;100.00;102700.09;5013348;28;860;-71
2022/01/13 07:15:44;;;;;;;;;;;;;;;2.67;100.00;102688.47;5014631;28;1985;-73
2022/01/13 07:18:11;;;;;;;;;;;;;;;2.71;100.00;102697.34;5014546;28;1322;-71
2022/01/13 07:20:39;;;;;;;;;;;;;;;2.69;100.00;102715.28;5013145;28;816;-71
2022/01/13 07:23:05;;;;;;;;;;;;;;;2.68;100.00;102719.72;5012843;28;765;-71
2022/01/13 07:25:32;;;;;;;;;;;;;;;2.70;100.00;102702.72;5013379;28;1035;-72
2022/01/13 07:27:58;;;;;;;;;;;;;;;2.70;100.00;102700.06;5012818;28;1383;-71
2022/01/13 07:30:26;;;;;;;;;;;;;;;2.71;100.00;102699.16;5012817;28;911;-71
2022/01/13 07:32:52;;;;;;;;;;;;;;;2.71;100.00;102697.34;5012817;28;994;-70
2022/01/13 07:35:18;;;;;;;;;;;;;;;2.71;100.00;102712.56;5012694;28;1975;-71
2022/01/13 07:37:44;;;;;;;;;;;;;;;2.72;100.00;102698.25;5012697;28;1548;-70
2022/01/13 07:40:13;;;;;;;;;;;;;;;2.67;100.00;102699.22;5013281;28;1477;-70
2022/01/13 07:42:41;;;;;;;;;;;;;;;2.70;100.00;102697.38;5021524;28;1200;-71
2022/01/13 07:45:08;;;;;;;;;;;;;;;2.71;100.00;102701.84;5021882;28;1220;-72
2022/01/13 07:47:36;;;;;;;;;;;;;;;2.71;100.00;102686.63;5022169;28;1482;-71
2022/01/13 07:50:02;;;;;;;;;;;;;;;2.70;100.00;102719.72;5027969;28;1244;-70
2022/01/13 07:52:29;;;;;;;;;;;;;;;2.67;100.00;102707.25;5020091;28;1094;-71
2022/01/13 07:54:55;;;;;;;;;;;;;;;2.68;100.00;102702.75;5011194;28;1909;-71
2022/01/13 07:57:22;;;;;;;;;;;;;;;2.71;100.00;102713.44;5010025;28;1452;-69
2022/01/13 07:59:48;;;;;;;;;;;;;;;2.72;100.00;102720.56;5010648;28;995;-70
2022/01/13 08:02:15;;;;;;;;;;;;;;;2.71;100.00;102724.16;5001792;28;990;-71
2022/01/13 08:04:42;;;;;;;;;;;;;;;2.78;100.00;102733.00;5011022;28;975;-70
2022/01/13 08:07:09;;;;;;;;;;;;;;;2.76;100.00;102746.44;5010722;28;1411;-71
2022/01/13 08:09:35;;;;;;;;;;;;;;;2.79;100.00;102730.31;5011710;28;975;-70
2022/01/13 08:12:01;;;;;;;;;;;;;;;2.80;100.00;102740.09;5011580;28;908;-70
2022/01/13 08:14:28;;;;;;;;;;;;;;;2.81;100.00;102723.09;5011643;28;1975;-70
2022/01/13 08:16:58;;;;;;;;;;;;;;;2.79;100.00;102722.25;5011316;28;1390;-70
2022/01/13 08:22:09;;;;;;;;;;;;;;;2.84;100.00;102725.72;5011652;28;987;-71
2022/01/13 08:24:36;;;;;;;;;;;;;;;2.85;100.00;102719.47;5011765;28;908;-70
2022/01/13 08:27:02;;;;;;;;;;;;;;;2.88;100.00;102720.34;5010910;28;1399;-71
2022/01/13 08:29:28;;;;;;;;;;;;;;;2.90;100.00;102721.16;5011514;28;892;-71
2022/01/13 08:31:55;;;;;;;;;;;;;;;2.91;100.00;102714.91;5011587;28;880;-71
2022/01/13 08:34:21;;;;;;;;;;;;;;;2.92;100.00;102716.69;5011650;28;1043;-69
2022/01/13 08:36:47;;;;;;;;;;;;;;;2.92;100.00;102711.31;5011065;28;2016;-70
2022/01/13 08:39:15;;;;;;;;;;;;;;;2.95;100.00;102716.63;5011807;28;1057;-71
2022/01/13 08:41:42;;;;;;;;;;;;;;;2.92;100.00;102704.13;5011938;28;801;-72
2022/01/13 08:44:08;;;;;;;;;;;;;;;2.95;100.00;102700.53;5011429;28;816;-70
2022/01/13 08:46:35;;;;;;;;;;;;;;;2.98;100.00;102708.50;5011278;28;1338;-70
2022/01/13 08:49:01;;;;;;;;;;;;;;;2.95;100.00;102700.53;5011284;28;876;-69
2022/01/13 08:51:27;;;;;;;;;;;;;;;2.97;100.00;102709.44;5011395;28;982;-69
2022/01/13 08:53:53;;;;;;;;;;;;;;;2.98;100.00;102711.19;5011348;28;1024;-71
2022/01/13 08:56:21;;;;;;;;;;;;;;;2.99;100.00;102719.25;5011137;28;1910;-71
2022/01/13 08:58:47;;;;;;;;;;;;;;;2.98;100.00;102706.72;5011549;28;962;-71
2022/01/13 09:01:14;;;;;;;;;;;;;;;3.01;100.00;102708.47;5011290;28;907;-72
2022/01/13 09:03:40;;;;;;;;;;;;;;;2.99;100.00;102708.50;5011793;28;1021;-70
2022/01/13 09:08:53;;;;;;;;;;;;;;;3.06;100.00;102703.00;4992487;28;1352;-75
2022/01/13 09:11:19;;;;;;;;;;;;;;;3.07;100.00;102696.72;5015364;28;1039;-77
2022/01/13 09:13:47;;;;;;;;;;;;;;;3.07;100.00;102699.41;5012088;28;1074;-76
2022/01/13 09:16:17;;;;;;;;;;;;;;;3.06;100.00;102706.59;5014566;28;1991;-76
2022/01/13 09:19:08;;;;;;;;;;;;;;;3.06;100.00;102706.59;4995095;28;867;-76
2022/01/13 09:21:37;;;;;;;;;;;;;;;3.09;100.00;102708.34;4995149;28;1038;-76
2022/01/13 09:24:03;;;;;;;;;;;;;;;3.09;100.00;102711.91;4995275;28;979;-74
2022/01/13 09:26:29;;;;;;;;;;;;;;;3.15;100.00;102722.53;4991621;28;1506;-74
2022/01/13 09:28:57;;;;;;;;;;;;;;;3.16;100.00;102705.50;4971921;28;1019;-74
2022/01/13 09:31:23;;;;;;;;;;;;;;;3.17;100.00;102699.22;4977545;28;1409;-75
2022/01/13 09:33:50;;;;;;;;;;;;;;;3.16;100.00;102700.13;5003124;28;1568;-76
2022/01/13 09:36:16;;;;;;;;;;;;;;;3.18;100.00;102692.06;5014915;28;1915;-75
2022/01/13 09:38:42;;;;;;;;;;;;;;;3.18;100.00;102692.94;5014291;28;1080;-75
2022/01/13 09:41:09;;;;;;;;;;;;;;;3.14;100.00;102685.88;4998351;28;1242;-73
2022/01/13 09:43:36;;;;;;;;;;;;;;;3.17;100.00;102693.84;4978290;28;1497;-75
2022/01/13 09:46:03;;;;;;;;;;;;;;;3.16;100.00;102697.44;4998180;28;724;-76
2022/01/13 09:48:31;;;;;;;;;;;;;;;3.17;100.00;102707.25;4998632;28;1306;-75
2022/01/13 09:50:57;;;;;;;;;;;;;;;3.19;100.00;102688.44;4982931;28;1386;-76
2022/01/13 09:53:23;;;;;;;;;;;;;;;3.16;100.00;102683.16;4981063;28;1215;-75
2022/01/13 09:55:50;;;;;;;;;;;;;;;3.14;100.00;102680.50;4997649;28;1906;-76
2022/01/13 09:58:17;;;;;;;;;;;;;;;3.19;100.00;102677.72;4991310;28;1305;-73
2022/01/13 10:00:44;;;;;;;;;;;;;;;3.18;100.00;102671.47;4994067;28;1082;-73
2022/01/13 10:03:12;;;;;;;;;;;;;;;3.18;100.00;102666.09;5008546;28;1144;-72
2022/01/13 10:05:47;;;;;;;;;;;;;;;3.24;100.00;102674.94;4992267;28;869;-74
2022/01/13 10:08:13;;;;;;;;;;;;;;;3.27;100.00;102670.38;5007565;28;1484;-74
2022/01/13 10:10:40;;;;;;;;;;;;;;;3.31;100.00;102672.13;4993666;28;988;-73
2022/01/13 10:13:09;;;;;;;;;;;;;;;3.29;100.00;102667.69;4975691;28;1521;-73
2022/01/13 10:18:39;;;;;;;;;;;;;;;3.34;100.00;102665.78;4993660;28;1445;-74
2022/01/13 10:21:06;;;;;;;;;;;;;;;3.35;100.00;102672.94;4993767;28;823;-74
2022/01/13 10:23:32;;;;;;;;;;;;;;;3.35;100.00;102673.84;4975763;28;1493;-76
2022/01/13 10:26:07;;;;;;;;;;;;;;;3.34;100.00;102672.06;4975545;28;1201;-76
2022/01/13 10:28:34;;;;;;;;;;;;;;;3.37;100.00;102680.94;4992893;28;1414;-74
2022/01/13 10:31:00;;;;;;;;;;;;;;;3.37;100.00;102678.25;4994657;28;1042;-75
2022/01/13 10:33:27;;;;;;;;;;;;;;;3.35;100.00;102667.56;5012220;28;919;-74
2022/01/13 10:36:05;;;;;;;;;;;;;;;3.42;100.00;102665.63;4977586;28;1960;-76
2022/01/13 10:38:49;;;;;;;;;;;;;;;3.44;100.00;102656.63;4993244;28;1457;-75
2022/01/13 10:41:31;;;;;;;;;;;;;;;3.45;100.00;102657.53;4993969;28;1326;-75
2022/01/13 10:44:17;;;;;;;;;;;;;;;3.43;100.00;102662.03;4984654;28;1003;-76
2022/01/13 10:46:59;;;;;;;;;;;;;;;3.43;100.00;102644.13;4987083;28;1462;-76
2022/01/13 10:49:34;;;;;;;;;;;;;;;3.38;100.00;102646.03;4991364;28;1301;-76
2022/01/13 10:52:23;;;;;;;;;;;;;;;3.39;100.00;102644.22;4995770;28;1281;-76
2022/01/13 10:54:51;;;;;;;;;;;;;;;3.37;100.00;102648.72;4964258;28;1477;-77
2022/01/13 10:57:19;;;;;;;;;;;;;;;3.37;100.00;102636.22;4992431;28;1914;-75
2022/01/13 10:59:45;;;;;;;;;;;;;;;3.35;100.00;102635.34;4994084;28;1149;-76
2022/01/13 11:02:11;;;;;;;;;;;;;;;3.34;100.00;102633.56;4993066;28;1547;-76
2022/01/13 11:04:37;;;;;;;;;;;;;;;3.42;100.00;102639.69;4973701;28;959;-75
2022/01/13 11:07:12;;;;;;;;;;;;;;;3.39;100.00;102615.56;4990653;28;1496;-77
2022/01/13 11:09:42;;;;;;;;;;;;;;;3.45;100.00;102628.88;4992308;28;1488;-77
2022/01/13 11:12:09;;;;;;;;;;;;;;;3.48;100.00;102628.78;4992963;28;1531;-76
2022/01/13 11:14:41;;;;;;;;;;;;;;;3.49;100.00;102635.94;4991722;28;1480;-77
2022/01/13 11:17:07;;;;;;;;;;;;;;;3.47;100.00;102639.56;4991957;28;1947;-77
2022/01/13 11:19:34;;;;;;;;;;;;;;;3.48;100.00;102628.78;4994455;28;1018;-75
2022/01/13 11:22:00;;;;;;;;;;;;;;;3.49;100.00;102619.84;4994432;28;1523;-74
2022/01/13 11:24:26;;;;;;;;;;;;;;;3.48;100.00;102625.25;4974386;28;1509;-74
2022/01/13 11:26:54;;;;;;;;;;;;;;;3.47;100.00;102629.72;4994777;28;1467;-75
2022/01/13 11:29:21;;;;;;;;;;;;;;;3.47;100.00;102632.41;5002011;28;1327;-74
2022/01/13 11:31:47;;;;;;;;;;;;;;;3.43;100.00;102641.44;5000371;28;1336;-76
2022/01/13 11:34:16;;;;;;;;;;;;;;;3.50;100.00;102637.72;4984806;28;1420;-75
2022/01/13 11:36:42;;;;;;;;;;;;;;;3.50;100.00;102636.81;5001268;28;1979;-75
2022/01/13 11:39:09;;;;;;;;;;;;;;;3.52;100.00;102643.06;5007312;28;1256;-76
2022/01/13 11:41:55;;;;;;;;;;;;;;;3.52;100.00;102635.88;4996796;28;1419;-76
2022/01/13 11:44:24;;;;;;;;;;;;;;;3.52;100.00;102632.31;4993556;28;1496;-75
2022/01/13 11:46:51;;;;;;;;;;;;;;;3.56;100.00;102643.88;4974384;28;1354;-76
2022/01/13 11:49:20;;;;;;;;;;;;;;;3.61;100.00;102642.88;4991918;28;1563;-76
2022/01/13 11:51:55;;;;;;;;;;;;;;;3.59;100.00;102641.13;4974542;28;1341;-76
2022/01/13 11:54:26;;;;;;;;;;;;;;;3.60;100.00;102637.53;4990258;28;1516;-75
2022/01/13 11:57:13;;;;;;;;;;;;;;;3.60;100.00;102629.47;4974200;28;1953;-76
2022/01/13 11:59:47;;;;;;;;;;;;;;;3.65;100.00;102620.38;4991524;28;1488;-74
2022/01/13 12:02:23;;;;;;;;;;;;;;;3.68;100.00;102625.69;4988020;28;2224;-74
2022/01/13 12:05:04;;;;;;;;;;;;;;;3.71;100.00;102616.69;4991005;28;1512;-75
2022/01/13 12:07:37;;;;;;;;;;;;;;;3.66;100.00;102611.41;4988892;28;1372;-76
2022/01/13 12:10:04;;;;;;;;;;;;;;;3.65;100.00;102611.47;4991214;28;1321;-74
2022/01/13 12:12:31;;;;;;;;;;;;;;;3.58;100.00;102605.34;5006733;28;1573;-74
2022/01/13 12:15:12;;;;;;;;;;;;;;;3.59;100.00;102595.47;4990575;28;1568;-75
2022/01/13 12:17:45;;;;;;;;;;;;;;;3.64;100.00;102594.44;4990930;28;1975;-73
2022/01/13 12:20:23;;;;;;;;;;;;;;;3.63;100.00;102602.53;4991331;28;1551;-72
2022/01/13 12:22:58;;;;;;;;;;;;;;;3.57;100.00;102587.44;4991270;28;1012;-73
2022/01/13 12:25:31;;;;;;;;;;;;;;;3.59;100.00;102600.84;5006218;28;1411;-74
2022/01/13 12:27:59;;;;;;;;;;;;;;;3.58;100.00;102597.28;4973190;28;1441;-74
2022/01/13 12:30:26;;;;;;;;;;;;;;;3.62;100.00;102587.34;4993427;28;1476;-75
2022/01/13 12:32:55;;;;;;;;;;;;;;;3.59;100.00;102590.09;4975059;28;1187;-75
2022/01/13 12:35:31;;;;;;;;;;;;;;;3.61;100.00;102582.91;4991326;28;1226;-72
2022/01/13 12:38:02;;;;;;;;;;;;;;;3.56;100.00;102582.13;4992461;28;1922;-74
2022/01/13 12:40:33;;;;;;;;;;;;;;;3.60;100.00;102586.50;4992272;28;1403;-75
2022/01/13 12:43:12;;;;;;;;;;;;;;;3.59;100.00;102584.72;4974587;28;940;-75
2022/01/13 12:45:38;;;;;;;;;;;;;;;3.56;100.00;102583.00;4973016;28;654;-74
2022/01/13 12:48:07;;;;;;;;;;;;;;;3.60;100.00;102589.19;4971251;28;1499;-75
2022/01/13 12:50:36;;;;;;;;;;;;;;;3.58;100.00;102582.94;4969990;28;1211;-74
2022/01/13 12:53:10;;;;;;;;;;;;;;;3.57;100.00;102582.06;4993134;28;1265;-74
2022/01/13 12:55:37;;;;;;;;;;;;;;;3.60;100.00;102583.81;4990313;28;1304;-74
2022/01/13 12:58:04;;;;;;;;;;;;;;;3.57;100.00;102574.03;4988951;28;1918;-76
2022/01/13 13:00:30;;;;;;;;;;;;;;;3.58;100.00;102573.13;4990362;28;1614;-75
2022/01/13 13:03:05;;;;;;;;;;;;;;;3.60;100.00;102575.75;4990494;28;1535;-74
2022/01/13 13:05:34;;;;;;;;;;;;;;;3.61;100.00;102564.97;4990275;28;995;-75
2022/01/13 13:08:01;;;;;;;;;;;;;;;3.66;100.00;102571.13;4989902;28;1361;-74
2022/01/13 13:10:29;;;;;;;;;;;;;;;3.63;100.00;102571.19;4990394;28;987;-73
2022/01/13 13:12:55;;;;;;;;;;;;;;;3.65;100.00;102576.53;4972778;28;1469;-73